ROMMA est une association bénévole à but non lucratif. Votre soutien est indispensable : ADHERER à ROMMA ou FAIRE un DON

Lyon - (69, Rhône)

Plaine lyonnaise (169 m)   Longitude: 04° 49' 55" E   Latitude: 45° 43' 50" N Station partenaire n°124
 

Détail journalier du     <<     >>

Température Precipitation Humidité Pression Vent Dir Rafale Dir. rafale Ensol.
Heure (°C) (mm) (%) (hPa) (km/h) (km/h) (min)
01:00 7.908410173SO6SO0
02:00 7.208710172SO5SO0
03:00 6.708910172SO6SO0
04:00 7.308610163SO10SO0
05:00 7.008710163SO6SO0
06:00 7.708610163SO10SO0
07:00 8.308410163SO8SO0
08:00 8.708310154SO11S0
09:00 9.807910153SO8SO0
10:00 11.407710154S14S0
11:00 12.407510156SO18SO0
12:00 13.806810157SE19SO0
13:00 14.706310147SE18SO0
14:00 15.106110146SE18SE0
15:00 17.005510133S10S10
16:00 18.105110135SE13SE10
17:00 18.305110133N10N0
18:00 17.905410133N8N0
19:00 17.306010133N8N10
20:00 15.806910143N8N0
21:00 14.407510141NO5NO0
22:00 14.407910141N3N0
23:00 13.8083101503N0
minuit 14.308110151---6N0

Graphique du 04-10-2019

 

Serveur OMMA